Hlavní strana
METAR-TAF:

METAR-TAF

Letiště :

Recife, Pernambuco, Brazílie

zeměpisná šířka: 08-08S, zeměpisná délka: 034-55W, výška: 19 m

Aktuální stav počasí

Zpráva byla vytvořena před 21 hodinami a 36 minutami, v 00:00 UTC
Jihovýchodní vítr 12 kt
Teplota 25°C
Vlhkost vzduchu 74%
Tlak 1019 hPa
Viditelnost 10 km a více
Polojasno ve výšce 2500 ft
Oblačno až skoro zataženo ve výšce 5000 ft

METAR: SBRF 210000Z 14012KT 9999 SCT025 BKN050 25/20 Q1019

Čas: 18:36 (21:36 UTC)

Předpověď počasí

Zpráva byla vytvořena před 23 hodinami a 36 minutami, v 22:00 UTC
Předpověď platná od 21 v 00 UTC do 21 v 24 UTC
Jihovýchodní vítr 12 kt
Viditelnost: 8000 m
Polojasno ve výšce 2000 ft

TAF: SBRF 202200Z 2100/2124 14012KT 8000 SCT020 TN24/2108Z TX27/2115Z RMK PCH

Stav a předpovědi počasí z více než 4 000 letišť (zprávy METAR a TAF).

Červené a žluté tečky na mapě představují dostupné meteorologické stanice.

Když kurzor umístíte na tečku, zobrazí se název stanice.

Pak kliknutím zobrazíte stav a předpověď počasí.

Chcete-li změnit mapu, kliknutím na zelené tlačítko se znaménkem +mapu přiblížíte, kliknutím na zelené tlačítko se znaménkem – mapu oddálíte a kliknutím na zelené šipky přejdete na sousední mapy.


METAR-TAF: